createdAt,value
2023-04-10T00:02:02.376Z,100737.75
2023-04-10T00:04:52.575Z,100729.09
2023-04-10T00:07:41.483Z,100663.41
2023-04-10T00:10:31.723Z,100723.78
2023-04-10T00:13:20.305Z,100723.34
2023-04-10T00:16:09.028Z,100722.47
2023-04-10T00:18:57.591Z,100718.91
2023-04-10T00:21:47.483Z,100722.59
2023-04-10T00:24:36.038Z,100724.94
2023-04-10T00:27:24.585Z,100723.63
2023-04-10T00:30:13.123Z,100730.47
2023-04-10T00:33:01.697Z,100735.00
2023-04-10T00:35:50.423Z,100735.16
2023-04-10T00:38:40.362Z,100738.50
2023-04-10T00:41:29.513Z,100739.31
2023-04-10T00:44:18.084Z,100736.00
2023-04-10T00:47:06.933Z,100728.78
2023-04-10T00:49:55.605Z,100727.66
2023-04-10T00:52:44.137Z,100661.94
2023-04-10T00:55:34.041Z,100717.63
2023-04-10T00:58:22.533Z,100726.91
2023-04-10T01:01:11.343Z,100724.19
2023-04-10T01:04:00.522Z,100733.66
2023-04-10T01:06:54.666Z,100731.00
2023-04-10T01:09:46.021Z,100726.31
2023-04-10T01:12:49.453Z,100721.25
2023-04-10T01:15:44.493Z,100720.88
2023-04-10T01:18:36.129Z,100714.16
2023-04-10T01:21:24.869Z,100720.31
2023-04-10T01:24:23.065Z,100721.97
2023-04-10T01:27:17.374Z,100726.94
2023-04-10T01:30:10.304Z,100716.88
2023-04-10T01:33:00.851Z,100726.69
2023-04-10T01:35:51.673Z,100731.47
2023-04-10T01:38:43.547Z,100722.97
2023-04-10T01:41:32.792Z,100742.88
2023-04-10T01:44:23.172Z,100744.50
2023-04-10T01:47:15.599Z,100739.66
2023-04-10T01:50:05.166Z,100749.13
2023-04-10T01:52:53.860Z,100740.81
2023-04-10T01:55:42.581Z,100752.06
2023-04-10T01:58:31.482Z,100744.84
2023-04-10T02:01:29.065Z,100751.47
2023-04-10T02:04:19.892Z,100744.28
2023-04-10T02:07:11.252Z,100743.34
2023-04-10T02:10:03.543Z,100743.78
2023-04-10T02:12:55.722Z,100743.94
2023-04-10T02:15:47.725Z,100742.44
2023-04-10T02:18:36.844Z,100724.28
2023-04-10T02:21:27.467Z,100720.38
2023-04-10T02:24:16.138Z,100727.53
2023-04-10T02:27:04.858Z,100688.91
2023-04-10T02:29:53.444Z,100716.31
2023-04-10T02:32:42.021Z,100723.28
2023-04-10T02:35:30.632Z,100719.72
2023-04-10T02:38:20.594Z,100722.09
2023-04-10T02:41:09.158Z,100720.94
2023-04-10T02:43:57.696Z,100676.13
2023-04-10T02:46:47.070Z,100716.22
2023-04-10T02:49:36.160Z,100691.25
2023-04-10T02:52:24.707Z,100713.97
2023-04-10T02:55:14.606Z,100709.00
2023-04-10T02:58:03.094Z,100698.22
2023-04-10T03:00:51.876Z,100701.78
2023-04-10T03:03:40.758Z,100707.41
2023-04-10T03:06:29.472Z,100698.31
2023-04-10T03:09:17.998Z,100688.06
2023-04-10T03:12:07.871Z,100696.47
2023-04-10T03:14:56.388Z,100683.19
2023-04-10T03:17:45.042Z,100680.63
2023-04-10T03:20:34.034Z,100680.69
2023-04-10T03:23:22.575Z,100680.63
2023-04-10T03:26:11.228Z,100685.56
2023-04-10T03:29:01.639Z,100683.28
2023-04-10T03:31:50.266Z,100670.16
2023-04-10T03:34:38.760Z,100662.19
2023-04-10T03:37:28.385Z,100649.66
2023-04-10T03:40:16.975Z,100652.88
2023-04-10T03:43:05.695Z,100629.28
2023-04-10T03:45:55.631Z,100640.69
2023-04-10T03:48:44.110Z,100638.28
2023-04-10T03:51:32.712Z,100633.28
2023-04-10T03:54:21.264Z,100634.94
2023-04-10T03:57:09.796Z,100639.66
2023-04-10T03:59:58.307Z,100640.50
2023-04-10T04:02:50.609Z,100633.34
2023-04-10T04:05:39.570Z,100630.53
2023-04-10T04:08:28.119Z,100632.69
2023-04-10T04:11:16.584Z,100628.97
2023-04-10T04:14:05.073Z,100637.38
2023-04-10T04:16:53.684Z,100643.19
2023-04-10T04:19:43.636Z,100640.38
2023-04-10T04:22:32.430Z,100650.25
2023-04-10T04:25:21.039Z,100646.16
2023-04-10T04:28:09.807Z,100655.81
2023-04-10T04:30:58.694Z,100648.47
2023-04-10T04:33:47.190Z,100645.66
2023-04-10T04:36:37.127Z,100647.47
2023-04-10T04:39:25.892Z,100646.41
2023-04-10T04:42:14.504Z,100650.72
2023-04-10T04:45:03.102Z,100657.25
2023-04-10T04:47:51.805Z,100629.56
2023-04-10T04:50:41.411Z,100652.72
2023-04-10T04:53:31.207Z,100661.72
2023-04-10T04:56:19.729Z,100655.44
2023-04-10T04:59:08.258Z,100650.72
2023-04-10T05:01:56.964Z,100657.63
2023-04-10T05:04:45.697Z,100662.63
2023-04-10T05:07:34.236Z,100656.72
2023-04-10T05:10:24.223Z,100661.28
2023-04-10T05:13:12.777Z,100655.69
2023-04-10T05:16:01.381Z,100662.53
2023-04-10T05:18:50.078Z,100662.09
2023-04-10T05:21:38.635Z,100662.47
2023-04-10T05:24:27.172Z,100655.22
2023-04-10T05:27:18.873Z,100660.28
2023-04-10T05:30:08.557Z,100572.53
2023-04-10T05:32:57.150Z,100656.41
2023-04-10T05:35:47.294Z,100654.47
2023-04-10T05:38:35.860Z,100661.38
2023-04-10T05:41:24.453Z,100646.47
2023-04-10T05:44:14.338Z,100661.84
2023-04-10T05:47:02.886Z,100662.44
2023-04-10T05:49:51.432Z,100669.44
2023-04-10T05:52:39.952Z,100664.72
2023-04-10T05:55:28.542Z,100667.81
2023-04-10T05:58:17.083Z,100666.94
2023-04-10T06:01:07.669Z,100679.94
2023-04-10T06:03:56.354Z,100667.72
2023-04-10T06:06:44.957Z,100673.44
2023-04-10T06:09:33.437Z,100667.44
2023-04-10T06:12:21.931Z,100672.59
2023-04-10T06:15:11.089Z,100679.03
2023-04-10T06:18:00.992Z,100670.47
2023-04-10T06:20:49.555Z,100670.31
2023-04-10T06:23:38.066Z,100670.09
2023-04-10T06:26:26.601Z,100667.91
2023-04-10T06:29:15.131Z,100659.28
2023-04-10T06:32:04.020Z,100669.13
2023-04-10T06:34:53.985Z,100668.69
2023-04-10T06:37:43.363Z,100646.88
2023-04-10T06:40:34.009Z,100669.00
2023-04-10T06:43:22.544Z,100667.00
2023-04-10T06:46:11.406Z,100664.94
2023-04-10T06:49:00.008Z,100667.53
2023-04-10T06:51:49.883Z,100670.88
2023-04-10T06:54:38.433Z,100672.63
2023-04-10T06:57:27.102Z,100665.78
2023-04-10T07:00:16.366Z,100670.72
2023-04-10T07:03:05.073Z,100668.91
2023-04-10T07:05:53.677Z,100671.78
2023-04-10T07:08:43.540Z,100669.03
2023-04-10T07:11:32.040Z,100670.00
2023-04-10T07:14:20.602Z,100667.25
2023-04-10T07:17:09.685Z,100669.69
2023-04-10T07:19:58.382Z,100664.13
2023-04-10T07:22:46.894Z,100659.91
2023-04-10T07:25:37.014Z,100663.09
2023-04-10T07:28:25.704Z,100669.38
2023-04-10T07:31:14.802Z,100657.66
2023-04-10T07:34:04.493Z,100660.56
2023-04-10T07:36:53.231Z,100643.41
2023-04-10T07:39:41.811Z,100654.41
2023-04-10T07:42:31.725Z,100651.09
2023-04-10T07:45:20.587Z,100656.06
2023-04-10T07:48:09.120Z,100655.88
2023-04-10T07:50:58.839Z,100660.66
2023-04-10T07:53:47.454Z,100664.16
2023-04-10T07:56:36.309Z,100656.91
2023-04-10T07:59:26.640Z,100654.38
2023-04-10T08:02:15.525Z,100650.63
2023-04-10T08:05:04.312Z,100652.63
2023-04-10T08:07:52.903Z,100663.06
2023-04-10T08:10:41.422Z,100657.78
2023-04-10T08:13:30.108Z,100652.03
2023-04-10T08:17:05.926Z,100655.28
2023-04-10T08:19:54.492Z,100653.31
2023-04-10T08:22:43.003Z,100647.88
2023-04-10T08:25:32.152Z,100591.00
2023-04-10T08:28:21.343Z,100639.94
2023-04-10T08:31:09.918Z,100643.91
2023-04-10T08:34:00.213Z,100642.34
2023-04-10T08:36:49.063Z,100646.13
2023-04-10T08:39:37.646Z,100649.41
2023-04-10T08:42:26.305Z,100637.22
2023-04-10T08:45:14.829Z,100641.22
2023-04-10T08:48:04.079Z,100633.56
2023-04-10T08:50:54.125Z,100622.31
2023-04-10T08:53:45.064Z,100623.88
2023-04-10T08:56:35.094Z,100622.28
2023-04-10T08:59:23.924Z,100622.97
2023-04-10T09:02:12.651Z,100613.50
2023-04-10T09:05:01.580Z,100615.78
2023-04-10T09:07:52.165Z,100610.00
2023-04-10T09:10:40.777Z,100609.25
2023-04-10T09:13:39.733Z,100597.66
2023-04-10T09:16:30.299Z,100590.25
2023-04-10T09:19:30.489Z,100586.34
2023-04-10T09:22:19.958Z,100587.50
2023-04-10T09:25:30.710Z,100576.28
2023-04-10T09:28:19.213Z,100575.69
2023-04-10T09:31:28.767Z,100561.97
2023-04-10T09:34:18.729Z,100565.56
2023-04-10T09:37:07.290Z,100562.28
2023-04-10T09:39:56.167Z,100550.16
2023-04-10T09:42:46.185Z,100550.38
2023-04-10T09:45:48.212Z,100513.34
2023-04-10T09:48:37.026Z,100551.78
2023-04-10T09:51:29.736Z,100549.31
2023-04-10T09:54:18.340Z,100548.88
2023-04-10T09:57:08.287Z,100536.63
2023-04-10T09:59:59.364Z,100532.63
2023-04-10T10:02:49.220Z,100530.38
2023-04-10T10:05:39.490Z,100518.47
2023-04-10T10:08:28.104Z,100517.41
2023-04-10T10:11:19.406Z,100507.63
2023-04-10T10:14:13.283Z,100510.69
2023-04-10T10:17:07.436Z,100502.81
2023-04-10T10:20:02.818Z,100484.69
2023-04-10T10:22:51.850Z,100488.25
2023-04-10T10:25:40.882Z,100502.59
2023-04-10T10:28:29.625Z,100499.09
2023-04-10T10:31:18.840Z,100484.38
2023-04-10T10:34:09.274Z,100485.91
2023-04-10T10:36:59.438Z,100485.25
2023-04-10T10:39:54.306Z,100483.34
2023-04-10T10:42:48.062Z,100460.31
2023-04-10T10:45:41.350Z,100467.88
2023-04-10T10:48:30.043Z,100458.06
2023-04-10T10:51:20.038Z,100459.69
2023-04-10T10:54:28.679Z,100459.56
2023-04-10T10:57:46.954Z,100454.25
2023-04-10T11:01:10.784Z,100463.63
2023-04-10T11:04:00.901Z,100443.13
2023-04-10T11:06:52.917Z,100443.19
2023-04-10T11:09:49.395Z,100442.56
2023-04-10T11:13:16.318Z,100436.72
2023-04-10T11:16:06.758Z,100443.13
2023-04-10T11:19:14.909Z,100437.84
2023-04-10T11:22:08.039Z,100432.31
2023-04-10T11:24:58.955Z,100433.38
2023-04-10T11:27:52.848Z,100411.31
2023-04-10T11:30:41.439Z,100413.75
2023-04-10T11:33:29.934Z,100415.19
2023-04-10T11:36:18.729Z,100403.28
2023-04-10T11:39:09.703Z,100382.19
2023-04-10T11:41:58.730Z,100402.59
2023-04-10T11:44:48.861Z,100401.22
2023-04-10T11:47:37.634Z,100404.81
2023-04-10T11:50:32.428Z,100348.13
2023-04-10T11:53:21.547Z,100386.09
2023-04-10T11:56:19.253Z,100369.16
2023-04-10T11:59:10.540Z,100375.16
2023-04-10T12:02:07.588Z,100381.47
2023-04-10T12:04:59.242Z,100382.25
2023-04-10T12:07:47.948Z,100369.59
2023-04-10T12:10:46.949Z,100360.44
2023-04-10T12:13:37.413Z,100361.38
2023-04-10T12:16:27.329Z,100355.88
2023-04-10T12:19:17.230Z,100324.34
2023-04-10T12:22:06.720Z,100343.75
2023-04-10T12:24:55.299Z,100345.00
2023-04-10T12:27:49.745Z,100336.72
2023-04-10T12:30:39.705Z,100341.84
2023-04-10T12:33:28.229Z,100341.78
2023-04-10T12:36:22.999Z,100327.53
2023-04-10T12:39:23.461Z,100320.31
2023-04-10T12:42:13.158Z,100316.84
2023-04-10T12:45:02.261Z,100319.09
2023-04-10T12:47:53.553Z,100302.75
2023-04-10T12:50:48.578Z,100318.03
2023-04-10T12:53:44.883Z,100306.34
2023-04-10T12:56:42.639Z,100310.13
2023-04-10T12:59:32.062Z,100303.00
2023-04-10T13:02:21.309Z,100302.19
2023-04-10T13:05:11.656Z,100299.72
2023-04-10T13:08:00.267Z,100290.69
2023-04-10T13:10:49.113Z,100298.31
2023-04-10T13:13:37.684Z,100295.56
2023-04-10T13:16:26.330Z,100286.84
2023-04-10T13:19:14.906Z,100283.28
2023-04-10T13:22:04.965Z,100287.91
2023-04-10T13:24:53.479Z,100270.91
2023-04-10T13:27:41.979Z,100282.13
2023-04-10T13:30:31.195Z,100275.34
2023-04-10T13:33:19.699Z,100276.44
2023-04-10T13:36:08.882Z,100269.66
2023-04-10T13:38:58.759Z,100267.75
2023-04-10T13:41:47.286Z,100260.97
2023-04-10T13:44:35.870Z,100256.84
2023-04-10T13:47:24.337Z,100238.28
2023-04-10T13:50:13.024Z,100246.75
2023-04-10T13:53:01.601Z,100242.13
2023-04-10T13:55:51.431Z,100229.59
2023-04-10T13:58:39.984Z,100230.13
2023-04-10T14:01:28.591Z,100221.09
2023-04-10T14:04:17.186Z,100221.38
2023-04-10T14:07:05.994Z,100225.75
2023-04-10T14:09:54.611Z,100218.94
2023-04-10T14:12:44.428Z,100206.13
2023-04-10T14:15:32.948Z,100216.47
2023-04-10T14:18:21.424Z,100209.13
2023-04-10T14:21:09.967Z,100213.47
2023-04-10T14:23:59.688Z,100165.72
2023-04-10T14:26:48.185Z,100203.38
2023-04-10T14:29:44.646Z,100196.00
2023-04-10T14:32:39.814Z,100193.53
2023-04-10T14:35:28.464Z,100196.84
2023-04-10T14:38:16.978Z,100196.00
2023-04-10T14:41:05.758Z,100187.81
2023-04-10T14:43:54.506Z,100186.19
2023-04-10T14:46:44.537Z,100176.09
2023-04-10T14:49:33.147Z,100179.09
2023-04-10T14:52:21.721Z,100167.88
2023-04-10T14:55:11.172Z,100174.69
2023-04-10T14:57:59.660Z,100176.84
2023-04-10T15:00:48.226Z,100167.00
2023-04-10T15:03:38.447Z,100155.53
2023-04-10T15:06:28.193Z,100156.03
2023-04-10T15:09:16.754Z,100156.03
2023-04-10T15:12:05.602Z,100148.09
2023-04-10T15:14:54.258Z,100148.09
2023-04-10T15:17:42.805Z,100140.94
2023-04-10T15:20:32.650Z,100136.03
2023-04-10T15:23:21.319Z,100120.78
2023-04-10T15:26:12.919Z,100112.88
2023-04-10T15:29:01.481Z,100111.72
2023-04-10T15:31:51.133Z,100103.00
2023-04-10T15:34:39.865Z,100107.06
2023-04-10T15:37:29.769Z,100101.88
2023-04-10T15:40:18.493Z,100104.28
2023-04-10T15:43:07.017Z,100096.13
2023-04-10T15:45:56.175Z,100102.38
2023-04-10T15:48:45.951Z,100091.97
2023-04-10T15:51:34.682Z,100106.94
2023-04-10T15:54:24.556Z,100099.56
2023-04-10T15:57:13.024Z,100095.47
2023-04-10T16:00:02.264Z,100090.25
2023-04-10T16:02:51.266Z,100096.22
2023-04-10T16:05:40.043Z,100093.75
2023-04-10T16:08:28.940Z,100091.84
2023-04-10T16:11:18.920Z,100083.44
2023-04-10T16:14:07.426Z,100065.13
2023-04-10T16:16:55.937Z,100056.72
2023-04-10T16:19:44.417Z,100048.53
2023-04-10T16:22:32.933Z,100045.72
2023-04-10T16:25:22.258Z,100027.78
2023-04-10T16:28:12.160Z,100041.00
2023-04-10T16:31:00.756Z,100030.88
2023-04-10T16:33:49.351Z,100041.22
2023-04-10T16:36:38.168Z,100040.66
2023-04-10T16:39:26.705Z,100035.22
2023-04-10T16:42:15.224Z,100033.78
2023-04-10T16:45:05.880Z,100039.19
2023-04-10T16:47:54.458Z,99941.13
2023-04-10T16:50:43.016Z,100041.56
2023-04-10T16:53:31.513Z,100033.94
2023-04-10T16:56:20.144Z,100032.41
2023-04-10T16:59:08.798Z,100042.25
2023-04-10T17:01:58.762Z,100029.75
2023-04-10T17:04:47.276Z,100029.97
2023-04-10T17:07:36.100Z,100027.19
2023-04-10T17:10:24.885Z,100026.84
2023-04-10T17:13:13.370Z,100030.06
2023-04-10T17:16:01.914Z,100030.28
2023-04-10T17:18:51.864Z,100027.75
2023-04-10T17:21:40.378Z,100013.56
2023-04-10T17:24:31.424Z,100001.78
2023-04-10T17:27:20.391Z,100008.03
2023-04-10T17:30:12.623Z,99993.09
2023-04-10T17:33:01.519Z,99988.97
2023-04-10T17:35:52.327Z,99950.19
2023-04-10T17:38:41.536Z,99980.72
2023-04-10T17:41:30.020Z,99976.31
2023-04-10T17:44:19.578Z,99979.00
2023-04-10T17:47:08.257Z,99974.06
2023-04-10T17:49:57.066Z,99962.38
2023-04-10T17:52:46.997Z,99946.94
2023-04-10T17:55:41.029Z,99862.56
2023-04-10T17:58:29.622Z,99922.09
2023-04-10T18:01:26.070Z,99915.25
2023-04-10T18:04:15.226Z,99923.81
2023-04-10T18:07:03.808Z,99925.97
2023-04-10T18:09:53.740Z,99919.25
2023-04-10T18:12:43.303Z,99938.97
2023-04-10T18:15:31.858Z,99950.88
2023-04-10T18:18:20.422Z,99949.94
2023-04-10T18:21:09.638Z,99952.88
2023-04-10T18:23:58.268Z,99940.94
2023-04-10T18:26:49.141Z,99966.34
2023-04-10T18:29:42.080Z,99972.78
2023-04-10T18:32:30.707Z,99973.44
2023-04-10T18:35:19.617Z,99985.84
2023-04-10T18:38:08.151Z,99980.94
2023-04-10T18:40:57.771Z,99987.56
2023-04-10T18:43:54.257Z,99961.72
2023-04-10T18:47:01.264Z,99951.06
2023-04-10T18:49:52.415Z,99941.34
2023-04-10T18:52:41.012Z,99946.69
2023-04-10T18:55:29.537Z,99953.66
2023-04-10T18:58:18.094Z,99962.34
2023-04-10T19:01:08.351Z,99951.66
2023-04-10T19:03:57.567Z,99960.28
2023-04-10T19:06:46.845Z,99914.25
2023-04-10T19:09:35.583Z,99956.50
2023-04-10T19:12:28.185Z,99966.47
2023-04-10T19:15:19.451Z,99969.66
2023-04-10T19:18:09.618Z,99988.91
2023-04-10T19:20:59.181Z,99979.94
2023-04-10T19:23:47.990Z,99982.66
2023-04-10T19:26:37.522Z,99985.13
2023-04-10T19:29:26.042Z,99997.84
2023-04-10T19:32:14.716Z,99984.38
2023-04-10T19:35:05.261Z,100006.19
2023-04-10T19:37:57.346Z,100007.59
2023-04-10T19:40:45.879Z,100005.28
2023-04-10T19:43:34.416Z,99997.56
2023-04-10T19:46:23.457Z,99994.97
2023-04-10T19:49:12.130Z,99989.06
2023-04-10T19:52:02.332Z,99974.69
2023-04-10T19:54:50.848Z,99963.28
2023-04-10T19:57:39.287Z,99966.59
2023-04-10T20:00:27.779Z,99964.13
2023-04-10T20:03:16.926Z,99975.78
2023-04-10T20:06:07.331Z,99972.97
2023-04-10T20:08:59.903Z,99967.78
2023-04-10T20:11:51.418Z,99954.69
2023-04-10T20:14:39.918Z,99971.91
2023-04-10T20:17:28.961Z,99967.31
2023-04-10T20:20:17.844Z,99957.09
2023-04-10T20:23:06.405Z,99948.78
2023-04-10T20:25:56.352Z,99906.63
2023-04-10T20:28:44.810Z,99940.44
2023-04-10T20:31:34.746Z,99940.19
2023-04-10T20:34:23.472Z,99939.13
2023-04-10T20:37:13.621Z,99927.66
2023-04-10T20:40:02.199Z,99931.19
2023-04-10T20:42:52.761Z,99922.09
2023-04-10T20:45:41.600Z,99924.50
2023-04-10T20:48:30.387Z,99908.28
2023-04-10T20:51:19.114Z,99923.22
2023-04-10T20:54:07.906Z,99893.56
2023-04-10T20:56:59.852Z,99886.16
2023-04-10T20:59:49.769Z,99894.94
2023-04-10T21:02:38.598Z,99902.06
2023-04-10T21:05:27.242Z,99889.94
2023-04-10T21:08:15.787Z,99882.03
2023-04-10T21:11:04.323Z,99883.38
2023-04-10T21:13:52.776Z,99880.34
2023-04-10T21:16:42.883Z,99894.69
2023-04-10T21:19:31.505Z,99905.00
2023-04-10T21:22:19.973Z,99911.88
2023-04-10T21:25:09.395Z,99910.25
2023-04-10T21:27:57.917Z,99910.34
2023-04-10T21:30:46.506Z,99896.97
2023-04-10T21:33:36.428Z,99886.78
2023-04-10T21:36:24.915Z,99901.56
2023-04-10T21:39:13.517Z,99889.59
2023-04-10T21:42:02.078Z,99880.41
2023-04-10T21:44:50.589Z,99877.63
2023-04-10T21:47:39.123Z,99871.25
2023-04-10T21:50:28.956Z,99858.28
2023-04-10T21:53:17.494Z,99856.00
2023-04-10T21:56:06.686Z,99856.97
2023-04-10T21:58:55.336Z,99856.88
2023-04-10T22:01:44.169Z,99831.72
2023-04-10T22:04:33.230Z,99829.28
2023-04-10T22:07:24.439Z,99806.16
2023-04-10T22:10:12.949Z,99778.63
2023-04-10T22:13:01.459Z,99783.78
2023-04-10T22:15:49.950Z,99757.88
2023-04-10T22:18:38.553Z,99757.25
2023-04-10T22:21:27.463Z,99755.28
2023-04-10T22:24:17.503Z,99754.88
2023-04-10T22:27:06.120Z,99754.03
2023-04-10T22:30:03.249Z,99728.47
2023-04-10T22:32:57.197Z,99731.56
2023-04-10T22:35:46.730Z,99715.34
2023-04-10T22:38:35.364Z,99738.56
2023-04-10T22:41:25.282Z,99692.69
2023-04-10T22:44:13.899Z,99730.44
2023-04-10T22:47:02.388Z,99734.34
2023-04-10T22:49:50.909Z,99744.25
2023-04-10T22:52:39.627Z,99758.75
2023-04-10T22:55:28.418Z,99756.03
2023-04-10T22:58:18.376Z,99751.25
2023-04-10T23:01:08.201Z,99729.22
2023-04-10T23:03:56.953Z,99738.06
2023-04-10T23:06:45.530Z,99754.38
2023-04-10T23:09:34.031Z,99718.81
2023-04-10T23:12:22.573Z,99758.50
2023-04-10T23:15:12.782Z,99747.84
2023-04-10T23:18:01.381Z,99766.16
2023-04-10T23:20:50.973Z,99747.97
2023-04-10T23:23:39.529Z,99749.78
2023-04-10T23:26:28.299Z,99748.22
2023-04-10T23:29:17.001Z,99755.81
2023-04-10T23:32:07.833Z,99746.47
2023-04-10T23:34:56.382Z,99745.25
2023-04-10T23:37:44.907Z,99755.56
2023-04-10T23:40:33.513Z,99744.72
2023-04-10T23:43:22.062Z,99748.66
2023-04-10T23:46:10.565Z,99745.78
2023-04-10T23:49:00.486Z,99707.94
2023-04-10T23:51:49.283Z,99710.63
2023-04-10T23:54:37.763Z,99698.22
2023-04-10T23:57:26.233Z,99699.75
